createdAt,value
2024-01-18T00:00:56.432Z,4.13
2024-01-18T00:03:26.893Z,4.38
2024-01-18T00:05:56.718Z,3.97
2024-01-18T00:08:26.522Z,4.40
2024-01-18T00:10:56.240Z,4.30
2024-01-18T00:13:25.959Z,4.18
2024-01-18T00:15:55.732Z,4.53
2024-01-18T00:18:25.593Z,5.00
2024-01-18T00:20:55.420Z,5.22
2024-01-18T00:23:25.078Z,5.32
2024-01-18T00:25:54.976Z,5.00
2024-01-18T00:28:24.685Z,5.18
2024-01-18T00:30:54.352Z,5.22
2024-01-18T00:33:24.168Z,5.43
2024-01-18T00:35:54.106Z,5.20
2024-01-18T00:38:23.958Z,5.25
2024-01-18T00:40:53.686Z,5.47
2024-01-18T00:43:23.438Z,5.57
2024-01-18T00:45:53.169Z,5.80
2024-01-18T00:48:23.167Z,5.47
2024-01-18T00:50:52.929Z,5.30
2024-01-18T00:53:25.149Z,5.68
2024-01-18T00:55:56.197Z,6.05
2024-01-18T00:58:25.913Z,5.85
2024-01-18T01:00:55.777Z,5.78
2024-01-18T01:03:25.684Z,5.80
2024-01-18T01:05:55.443Z,6.07
2024-01-18T01:08:25.105Z,5.63
2024-01-18T01:10:54.849Z,5.47
2024-01-18T01:13:24.600Z,6.20
2024-01-18T01:15:54.311Z,6.40
2024-01-18T01:18:24.114Z,6.07
2024-01-18T01:20:53.991Z,5.80
2024-01-18T01:23:23.671Z,6.28
2024-01-18T01:25:53.395Z,6.25
2024-01-18T01:28:23.122Z,6.38
2024-01-18T01:30:52.778Z,6.15
2024-01-18T01:33:22.518Z,6.10
2024-01-18T01:35:52.452Z,6.53
2024-01-18T01:38:22.197Z,6.00
2024-01-18T01:40:51.963Z,6.65
2024-01-18T01:43:21.725Z,6.38
2024-01-18T01:45:53.625Z,6.57
2024-01-18T01:48:23.567Z,6.82
2024-01-18T01:50:56.618Z,6.15
2024-01-18T01:53:26.400Z,6.50
2024-01-18T01:55:56.039Z,6.65
2024-01-18T01:58:25.839Z,6.63
2024-01-18T02:00:55.645Z,6.70
2024-01-18T02:03:26.390Z,6.53
2024-01-18T02:05:56.071Z,6.60
2024-01-18T02:08:25.803Z,6.60
2024-01-18T02:10:55.654Z,6.63
2024-01-18T02:13:26.150Z,6.65
2024-01-18T02:15:55.844Z,7.13
2024-01-18T02:18:25.629Z,6.95
2024-01-18T02:20:55.337Z,6.70
2024-01-18T02:23:25.139Z,7.35
2024-01-18T02:25:54.893Z,7.00
2024-01-18T02:28:24.540Z,6.45
2024-01-18T02:30:54.250Z,6.70
2024-01-18T02:33:24.072Z,6.53
2024-01-18T02:35:53.851Z,6.28
2024-01-18T02:38:23.861Z,6.70
2024-01-18T02:40:53.496Z,5.80
2024-01-18T02:43:23.118Z,6.70
2024-01-18T02:45:52.720Z,6.53
2024-01-18T02:48:38.435Z,6.50
2024-01-18T02:51:08.210Z,6.38
2024-01-18T02:53:38.029Z,6.35
2024-01-18T02:56:08.126Z,6.28
2024-01-18T02:58:37.753Z,6.30
2024-01-18T03:01:07.522Z,6.78
2024-01-18T03:03:38.715Z,6.10
2024-01-18T03:06:08.627Z,6.45
2024-01-18T03:08:39.107Z,6.35
2024-01-18T03:11:09.758Z,6.45
2024-01-18T03:13:42.921Z,6.45
2024-01-18T03:16:14.730Z,6.20
2024-01-18T03:18:46.478Z,6.40
2024-01-18T03:21:16.322Z,6.68
2024-01-18T03:23:46.120Z,5.93
2024-01-18T03:26:15.893Z,6.35
2024-01-18T03:28:45.597Z,5.88
2024-01-18T03:31:16.123Z,6.15
2024-01-18T03:33:46.004Z,5.53
2024-01-18T03:36:15.839Z,6.32
2024-01-18T03:38:45.578Z,5.97
2024-01-18T03:41:19.992Z,6.10
2024-01-18T03:43:49.719Z,6.50
2024-01-18T03:46:19.414Z,6.20
2024-01-18T03:48:49.366Z,6.20
2024-01-18T03:51:20.946Z,6.43
2024-01-18T03:53:50.592Z,6.50
2024-01-18T03:56:20.363Z,5.95
2024-01-18T03:58:50.075Z,6.07
2024-01-18T04:01:19.925Z,6.45
2024-01-18T04:03:51.326Z,6.38
2024-01-18T04:06:21.153Z,7.28
2024-01-18T04:08:51.191Z,5.85
2024-01-18T04:11:20.826Z,5.65
2024-01-18T04:13:50.473Z,6.32
2024-01-18T04:16:20.926Z,6.10
2024-01-18T04:18:50.720Z,6.32
2024-01-18T04:21:24.292Z,5.97
2024-01-18T04:23:54.076Z,6.18
2024-01-18T04:26:26.876Z,5.88
2024-01-18T04:28:57.075Z,5.60
2024-01-18T04:31:26.756Z,6.30
2024-01-18T04:33:58.413Z,6.43
2024-01-18T04:36:28.148Z,6.40
2024-01-18T04:38:57.944Z,6.10
2024-01-18T04:41:28.089Z,6.38
2024-01-18T04:43:57.759Z,6.47
2024-01-18T04:46:28.204Z,6.07
2024-01-18T04:48:57.929Z,6.00
2024-01-18T04:51:27.797Z,5.57
2024-01-18T04:53:57.622Z,6.03
2024-01-18T04:56:27.339Z,6.32
2024-01-18T04:58:57.060Z,6.18
2024-01-18T05:01:26.718Z,5.90
2024-01-18T05:03:56.386Z,5.50
2024-01-18T05:06:27.925Z,6.22
2024-01-18T05:08:57.906Z,6.00
2024-01-18T05:11:28.398Z,6.00
2024-01-18T05:13:58.131Z,5.97
2024-01-18T05:16:28.430Z,6.72
2024-01-18T05:18:58.335Z,5.75
2024-01-18T05:21:28.055Z,5.53
2024-01-18T05:23:57.834Z,5.68
2024-01-18T05:26:27.482Z,5.38
2024-01-18T05:28:57.163Z,5.13
2024-01-18T05:31:26.987Z,5.55
2024-01-18T05:33:59.019Z,5.90
2024-01-18T05:36:28.881Z,5.22
2024-01-18T05:38:58.655Z,5.15
2024-01-18T05:41:28.405Z,5.43
2024-01-18T05:43:58.097Z,5.45
2024-01-18T05:46:28.769Z,5.85
2024-01-18T05:48:58.480Z,5.50
2024-01-18T05:51:28.199Z,5.07
2024-01-18T05:53:58.928Z,5.35
2024-01-18T05:56:28.967Z,4.70
2024-01-18T05:58:58.694Z,5.25
2024-01-18T06:01:28.415Z,4.80
2024-01-18T06:03:58.412Z,4.70
2024-01-18T06:06:28.546Z,4.93
2024-01-18T06:08:58.280Z,4.20
2024-01-18T06:11:27.937Z,4.70
2024-01-18T06:13:57.697Z,4.50
2024-01-18T06:16:27.362Z,4.57
2024-01-18T06:18:57.106Z,4.30
2024-01-18T06:21:26.824Z,4.50
2024-01-18T06:23:56.446Z,3.95
2024-01-18T06:26:26.114Z,4.15
2024-01-18T06:28:55.709Z,4.05
2024-01-18T06:31:29.091Z,4.03
2024-01-18T06:34:02.165Z,3.92
2024-01-18T06:36:31.861Z,3.70
2024-01-18T06:39:01.687Z,3.38
2024-01-18T06:41:31.500Z,3.50
2024-01-18T06:44:01.239Z,3.67
2024-01-18T06:46:31.328Z,3.83
2024-01-18T06:49:02.637Z,3.33
2024-01-18T06:51:32.521Z,3.00
2024-01-18T06:54:02.358Z,3.25
2024-01-18T06:56:32.177Z,3.05
2024-01-18T06:59:03.978Z,3.00
2024-01-18T07:01:33.674Z,2.90
2024-01-18T07:04:03.520Z,3.13
2024-01-18T07:06:34.364Z,2.97
2024-01-18T07:09:05.725Z,3.00
2024-01-18T07:11:36.275Z,2.70
2024-01-18T07:14:05.854Z,2.95
2024-01-18T07:16:35.480Z,3.15
2024-01-18T07:19:05.684Z,2.92
2024-01-18T07:21:35.588Z,2.90
2024-01-18T07:24:05.277Z,2.95
2024-01-18T07:26:34.977Z,2.72
2024-01-18T07:29:04.601Z,3.05
2024-01-18T07:31:34.327Z,2.83
2024-01-18T07:34:04.106Z,2.45
2024-01-18T07:36:33.794Z,2.55
2024-01-18T07:39:04.965Z,3.03
2024-01-18T07:41:34.594Z,2.70
2024-01-18T07:44:04.300Z,2.90
2024-01-18T07:46:33.980Z,9.30
2024-01-18T07:49:04.434Z,3.70
2024-01-18T07:51:34.355Z,3.42
2024-01-18T07:54:04.055Z,4.13
2024-01-18T07:56:33.923Z,4.93
2024-01-18T07:59:03.817Z,4.40
2024-01-18T08:01:36.431Z,4.90
2024-01-18T08:04:08.276Z,4.78
2024-01-18T08:06:38.139Z,3.47
2024-01-18T08:09:07.985Z,3.83
2024-01-18T08:11:37.718Z,3.85
2024-01-18T08:14:07.315Z,3.65
2024-01-18T08:16:37.017Z,3.72
2024-01-18T08:19:06.762Z,4.00
2024-01-18T08:21:36.645Z,3.58
2024-01-18T08:24:09.309Z,3.65
2024-01-18T08:26:41.512Z,3.22
2024-01-18T08:29:11.604Z,3.53
2024-01-18T08:31:42.573Z,3.03
2024-01-18T08:34:12.507Z,3.80
2024-01-18T08:36:42.295Z,3.45
2024-01-18T08:39:12.026Z,3.78
2024-01-18T08:41:41.722Z,3.38
2024-01-18T08:44:12.129Z,3.30
2024-01-18T08:46:44.604Z,3.10
2024-01-18T08:49:14.287Z,3.28
2024-01-18T08:51:44.058Z,3.08
2024-01-18T08:54:13.782Z,3.15
2024-01-18T08:56:43.435Z,3.15
2024-01-18T08:59:13.835Z,3.15
2024-01-18T09:01:43.688Z,3.40
2024-01-18T09:04:13.713Z,3.35
2024-01-18T09:06:43.414Z,2.83
2024-01-18T09:09:13.524Z,3.05
2024-01-18T09:11:44.235Z,3.22
2024-01-18T09:14:13.843Z,3.25
2024-01-18T09:16:43.472Z,3.10
2024-01-18T09:19:15.082Z,3.13
2024-01-18T09:21:47.424Z,3.22
2024-01-18T09:24:17.348Z,3.10
2024-01-18T09:26:46.912Z,3.08
2024-01-18T09:29:16.579Z,2.92
2024-01-18T09:31:46.238Z,3.33
2024-01-18T09:34:15.896Z,3.58
2024-01-18T09:36:47.847Z,3.00
2024-01-18T09:39:19.196Z,3.30
2024-01-18T09:41:58.529Z,3.78
2024-01-18T09:44:29.527Z,3.30
2024-01-18T09:47:00.393Z,3.47
2024-01-18T09:49:30.517Z,3.50
2024-01-18T09:52:00.834Z,3.30
2024-01-18T09:54:31.798Z,3.00
2024-01-18T09:57:03.859Z,3.10
2024-01-18T09:59:33.554Z,2.80
2024-01-18T10:02:03.132Z,3.53
2024-01-18T10:04:34.389Z,3.40
2024-01-18T10:07:05.325Z,2.85
2024-01-18T10:09:35.250Z,3.00
2024-01-18T10:12:05.181Z,3.10
2024-01-18T10:14:52.820Z,2.80
2024-01-18T10:17:25.792Z,2.80
2024-01-18T10:20:02.122Z,3.10
2024-01-18T10:22:32.096Z,2.92
2024-01-18T10:25:01.984Z,3.08
2024-01-18T10:27:31.703Z,3.33
2024-01-18T10:30:01.342Z,3.20
2024-01-18T10:32:35.282Z,3.45
2024-01-18T10:35:05.426Z,3.20
2024-01-18T10:37:37.224Z,3.13
2024-01-18T10:40:07.301Z,3.08
2024-01-18T10:42:37.044Z,2.90
2024-01-18T10:45:08.362Z,2.92
2024-01-18T10:47:38.072Z,3.15
2024-01-18T10:50:09.449Z,3.22
2024-01-18T10:52:40.175Z,3.00
2024-01-18T10:55:14.793Z,2.95
2024-01-18T10:57:44.784Z,3.03
2024-01-18T11:00:18.706Z,3.15
2024-01-18T11:02:48.573Z,3.10
2024-01-18T11:05:23.390Z,3.20
2024-01-18T11:07:53.219Z,3.25
2024-01-18T11:10:23.252Z,3.15
2024-01-18T11:12:53.000Z,3.20
2024-01-18T11:15:22.767Z,3.40
2024-01-18T11:18:00.653Z,3.40
2024-01-18T11:20:30.328Z,3.40
2024-01-18T11:23:01.328Z,3.70
2024-01-18T11:25:35.723Z,3.58
2024-01-18T11:28:05.417Z,3.58
2024-01-18T11:30:43.324Z,3.70
2024-01-18T11:33:14.195Z,3.47
2024-01-18T11:35:45.264Z,3.72
2024-01-18T11:38:26.931Z,3.80
2024-01-18T11:41:05.634Z,3.65
2024-01-18T11:44:00.150Z,3.63
2024-01-18T11:46:42.793Z,3.80
2024-01-18T11:49:12.800Z,4.00
2024-01-18T11:51:43.598Z,4.32
2024-01-18T11:54:13.471Z,3.80
2024-01-18T11:56:43.412Z,4.63
2024-01-18T11:59:13.235Z,4.00
2024-01-18T12:01:42.871Z,4.00
2024-01-18T12:04:12.842Z,4.00
2024-01-18T12:06:42.607Z,4.50
2024-01-18T12:09:12.667Z,4.07
2024-01-18T12:11:42.303Z,4.35
2024-01-18T12:14:11.930Z,4.30
2024-01-18T12:16:41.490Z,4.65
2024-01-18T12:19:12.807Z,4.13
2024-01-18T12:21:42.455Z,4.75
2024-01-18T12:24:12.289Z,4.60
2024-01-18T12:26:44.216Z,4.47
2024-01-18T12:29:14.153Z,4.57
2024-01-18T12:31:43.890Z,4.45
2024-01-18T12:34:13.627Z,4.50
2024-01-18T12:36:43.318Z,4.40
2024-01-18T12:39:13.972Z,4.65
2024-01-18T12:41:44.497Z,5.07
2024-01-18T12:44:14.709Z,4.82
2024-01-18T12:46:44.374Z,4.60
2024-01-18T12:49:18.638Z,5.07
2024-01-18T12:51:58.735Z,5.45
2024-01-18T12:54:30.879Z,4.93
2024-01-18T12:57:08.907Z,5.07
2024-01-18T12:59:38.612Z,4.78
2024-01-18T13:02:08.272Z,4.78
2024-01-18T13:04:39.530Z,5.22
2024-01-18T13:07:14.688Z,5.07
2024-01-18T13:09:45.065Z,5.22
2024-01-18T13:12:14.820Z,5.40
2024-01-18T13:14:44.507Z,5.15
2024-01-18T13:17:18.182Z,5.22
2024-01-18T13:19:48.073Z,5.28
2024-01-18T13:22:17.813Z,5.18
2024-01-18T13:24:47.595Z,4.93
2024-01-18T13:27:17.236Z,5.60
2024-01-18T13:29:46.972Z,5.65
2024-01-18T13:32:16.651Z,5.38
2024-01-18T13:34:46.439Z,5.47
2024-01-18T13:37:18.698Z,5.38
2024-01-18T13:39:56.209Z,5.47
2024-01-18T13:42:25.920Z,6.03
2024-01-18T13:44:56.594Z,5.45
2024-01-18T13:47:26.396Z,6.03
2024-01-18T13:49:56.101Z,5.63
2024-01-18T13:52:31.218Z,6.00
2024-01-18T13:55:01.521Z,5.50
2024-01-18T13:57:31.285Z,5.80
2024-01-18T14:00:01.025Z,5.43
2024-01-18T14:02:30.696Z,5.78
2024-01-18T14:05:00.416Z,5.22
2024-01-18T14:07:30.271Z,5.95
2024-01-18T14:10:00.081Z,6.20
2024-01-18T14:12:29.815Z,5.72
2024-01-18T14:14:59.674Z,6.10
2024-01-18T14:17:30.037Z,5.72
2024-01-18T14:20:00.827Z,6.13
2024-01-18T14:22:30.533Z,5.97
2024-01-18T14:25:00.331Z,5.80
2024-01-18T14:27:30.095Z,5.97
2024-01-18T14:29:59.807Z,6.18
2024-01-18T14:32:32.050Z,5.75
2024-01-18T14:35:02.025Z,6.60
2024-01-18T14:37:31.783Z,6.03
2024-01-18T14:40:01.499Z,6.43
2024-01-18T14:42:31.256Z,5.80
2024-01-18T14:45:00.880Z,6.10
2024-01-18T14:47:33.602Z,6.47
2024-01-18T14:50:03.792Z,6.25
2024-01-18T14:52:33.545Z,6.00
2024-01-18T14:55:03.344Z,6.13
2024-01-18T14:57:33.049Z,6.15
2024-01-18T15:00:03.337Z,6.78
2024-01-18T15:02:34.011Z,6.35
2024-01-18T15:05:04.142Z,6.80
2024-01-18T15:07:33.928Z,6.53
2024-01-18T15:10:04.016Z,6.60
2024-01-18T15:12:33.810Z,6.28
2024-01-18T15:15:04.054Z,6.72
2024-01-18T15:17:33.655Z,6.65
2024-01-18T15:20:07.979Z,6.30
2024-01-18T15:22:37.744Z,6.35
2024-01-18T15:25:07.706Z,6.82
2024-01-18T15:27:38.091Z,6.78
2024-01-18T15:30:08.568Z,6.38
2024-01-18T15:32:38.362Z,5.97
2024-01-18T15:35:08.699Z,7.15
2024-01-18T15:37:38.351Z,6.68
2024-01-18T15:40:12.130Z,6.35
2024-01-18T15:42:42.369Z,6.45
2024-01-18T15:45:13.713Z,6.55
2024-01-18T15:47:45.403Z,6.25
2024-01-18T15:50:15.581Z,6.90
2024-01-18T15:52:45.675Z,6.88
2024-01-18T15:55:17.007Z,7.07
2024-01-18T15:57:46.700Z,6.68
2024-01-18T16:00:17.202Z,6.60
2024-01-18T16:02:47.109Z,6.60
2024-01-18T16:05:17.154Z,6.75
2024-01-18T16:07:46.864Z,6.53
2024-01-18T16:10:16.611Z,6.95
2024-01-18T16:12:46.510Z,6.90
2024-01-18T16:15:16.224Z,6.28
2024-01-18T16:17:46.040Z,6.40
2024-01-18T16:20:16.042Z,6.65
2024-01-18T16:22:45.725Z,6.78
2024-01-18T16:25:15.282Z,6.10
2024-01-18T16:27:45.048Z,6.28
2024-01-18T16:30:20.339Z,6.70
2024-01-18T16:32:56.682Z,6.93
2024-01-18T16:35:26.695Z,6.88
2024-01-18T16:38:00.941Z,6.50
2024-01-18T16:40:36.800Z,6.30
2024-01-18T16:43:06.563Z,6.55
2024-01-18T16:45:36.288Z,6.53
2024-01-18T16:48:06.243Z,6.25
2024-01-18T16:50:36.070Z,6.75
2024-01-18T16:53:05.921Z,6.30
2024-01-18T16:55:37.561Z,6.32
2024-01-18T16:58:07.841Z,6.50
2024-01-18T17:00:37.632Z,6.90
2024-01-18T17:03:07.397Z,6.75
2024-01-18T17:05:37.147Z,6.78
2024-01-18T17:08:09.520Z,6.78
2024-01-18T17:10:39.238Z,6.82
2024-01-18T17:13:08.867Z,6.25
2024-01-18T17:15:38.519Z,7.07
2024-01-18T17:18:09.637Z,6.22
2024-01-18T17:20:39.835Z,6.88
2024-01-18T17:23:09.571Z,6.30
2024-01-18T17:25:39.217Z,7.10
2024-01-18T17:28:09.375Z,6.25
2024-01-18T17:30:39.178Z,7.07
2024-01-18T17:33:09.333Z,6.75
2024-01-18T17:35:39.151Z,6.38
2024-01-18T17:38:09.329Z,6.13
2024-01-18T17:40:38.939Z,6.70
2024-01-18T17:43:08.589Z,6.15
2024-01-18T17:45:39.532Z,7.00
2024-01-18T17:48:09.633Z,6.78
2024-01-18T17:50:40.281Z,6.72
2024-01-18T17:53:10.450Z,6.78
2024-01-18T17:55:40.161Z,6.75
2024-01-18T17:58:10.422Z,6.15
2024-01-18T18:00:40.528Z,6.07
2024-01-18T18:03:10.273Z,7.10
2024-01-18T18:05:39.940Z,6.25
2024-01-18T18:08:09.721Z,6.63
2024-01-18T18:10:39.795Z,6.57
2024-01-18T18:13:09.417Z,6.60
2024-01-18T18:15:45.033Z,6.72
2024-01-18T18:18:20.271Z,6.80
2024-01-18T18:20:51.766Z,6.65
2024-01-18T18:23:21.508Z,6.50
2024-01-18T18:25:51.124Z,5.90
2024-01-18T18:28:20.873Z,6.95
2024-01-18T18:30:57.463Z,6.45
2024-01-18T18:33:28.836Z,6.82
2024-01-18T18:35:58.569Z,6.72
2024-01-18T18:38:32.902Z,6.57
2024-01-18T18:41:03.621Z,6.95
2024-01-18T18:43:33.423Z,6.25
2024-01-18T18:46:03.139Z,6.72
2024-01-18T18:48:33.021Z,6.93
2024-01-18T18:51:02.792Z,6.50
2024-01-18T18:53:32.455Z,6.82
2024-01-18T18:56:02.284Z,6.20
2024-01-18T18:58:31.929Z,6.70
2024-01-18T19:01:03.302Z,6.70
2024-01-18T19:03:33.061Z,6.35
2024-01-18T19:06:02.916Z,6.57
2024-01-18T19:08:32.869Z,6.65
2024-01-18T19:11:02.554Z,6.68
2024-01-18T19:13:32.236Z,6.95
2024-01-18T19:16:02.097Z,6.35
2024-01-18T19:18:31.835Z,6.45
2024-01-18T19:21:08.260Z,6.90
2024-01-18T19:23:37.928Z,6.90
2024-01-18T19:26:07.742Z,5.97
2024-01-18T19:28:37.904Z,6.97
2024-01-18T19:31:07.612Z,6.90
2024-01-18T19:33:37.261Z,5.97
2024-01-18T19:36:09.069Z,6.60
2024-01-18T19:38:38.791Z,6.25
2024-01-18T19:41:08.591Z,6.63
2024-01-18T19:43:38.295Z,6.55
2024-01-18T19:46:08.565Z,6.25
2024-01-18T19:48:38.391Z,6.22
2024-01-18T19:51:10.695Z,6.78
2024-01-18T19:53:40.614Z,6.05
2024-01-18T19:56:10.355Z,6.55
2024-01-18T19:58:40.045Z,5.72
2024-01-18T20:01:10.005Z,6.25
2024-01-18T20:03:39.749Z,6.32
2024-01-18T20:06:09.973Z,6.45
2024-01-18T20:08:39.653Z,6.53
2024-01-18T20:11:09.479Z,5.85
2024-01-18T20:13:39.145Z,6.25
2024-01-18T20:16:09.514Z,6.00
2024-01-18T20:18:39.186Z,5.53
2024-01-18T20:21:08.873Z,5.50
2024-01-18T20:23:38.901Z,5.70
2024-01-18T20:26:12.320Z,5.22
2024-01-18T20:28:43.425Z,5.80
2024-01-18T20:31:13.384Z,4.85
2024-01-18T20:33:44.947Z,5.63
2024-01-18T20:36:16.294Z,4.90
2024-01-18T20:38:46.651Z,4.82
2024-01-18T20:41:16.544Z,4.88
2024-01-18T20:43:46.185Z,5.13
2024-01-18T20:46:15.829Z,4.95
2024-01-18T20:48:45.574Z,5.20
2024-01-18T20:51:15.337Z,4.47
2024-01-18T20:53:44.983Z,4.40
2024-01-18T20:56:14.690Z,4.50
2024-01-18T20:58:45.537Z,4.60
2024-01-18T21:01:16.367Z,4.70
2024-01-18T21:03:46.016Z,4.57
2024-01-18T21:06:15.768Z,4.22
2024-01-18T21:08:45.418Z,3.90
2024-01-18T21:11:15.205Z,3.92
2024-01-18T21:13:44.996Z,3.80
2024-01-18T21:16:14.634Z,4.47
2024-01-18T21:18:44.317Z,3.60
2024-01-18T21:21:17.388Z,3.83
2024-01-18T21:23:47.129Z,3.40
2024-01-18T21:26:16.831Z,3.22
2024-01-18T21:28:46.507Z,3.55
2024-01-18T21:31:16.191Z,3.50
2024-01-18T21:33:45.856Z,3.30
2024-01-18T21:36:15.636Z,3.00
2024-01-18T21:38:45.399Z,3.28
2024-01-18T21:41:15.066Z,3.35
2024-01-18T21:43:44.854Z,3.38
2024-01-18T21:46:15.619Z,3.17
2024-01-18T21:48:45.517Z,3.33
2024-01-18T21:51:15.557Z,3.05
2024-01-18T21:53:46.121Z,3.20
2024-01-18T21:56:16.638Z,3.13
2024-01-18T21:58:48.321Z,3.15
2024-01-18T22:01:18.083Z,3.15
2024-01-18T22:03:47.785Z,3.50
2024-01-18T22:06:17.870Z,3.30
2024-01-18T22:08:48.001Z,3.20
2024-01-18T22:11:17.817Z,2.95
2024-01-18T22:13:47.487Z,3.20
2024-01-18T22:16:17.436Z,3.00
2024-01-18T22:18:47.117Z,2.90
2024-01-18T22:21:17.280Z,2.95
2024-01-18T22:23:47.422Z,3.05
2024-01-18T22:26:17.424Z,3.10
2024-01-18T22:28:47.050Z,2.97
2024-01-18T22:31:16.685Z,3.20
2024-01-18T22:33:46.559Z,3.20
2024-01-18T22:36:16.595Z,2.90
2024-01-18T22:38:46.807Z,2.88
2024-01-18T22:41:16.510Z,2.97
2024-01-18T22:43:46.164Z,3.03
2024-01-18T22:46:16.354Z,3.00
2024-01-18T22:48:46.439Z,2.80
2024-01-18T22:51:18.190Z,2.60
2024-01-18T22:53:48.818Z,3.03
2024-01-18T22:56:18.762Z,2.80
2024-01-18T22:58:54.315Z,2.92
2024-01-18T23:01:24.038Z,2.95
2024-01-18T23:03:53.662Z,3.00
2024-01-18T23:06:23.338Z,2.70
2024-01-18T23:08:53.097Z,2.90
2024-01-18T23:11:22.853Z,2.60
2024-01-18T23:13:52.548Z,2.90
2024-01-18T23:16:22.864Z,2.53
2024-01-18T23:18:52.602Z,2.80
2024-01-18T23:21:22.442Z,2.70
2024-01-18T23:23:53.003Z,2.60
2024-01-18T23:26:22.754Z,2.67
2024-01-18T23:28:53.276Z,2.67
2024-01-18T23:31:23.376Z,2.60
2024-01-18T23:33:53.962Z,2.50
2024-01-18T23:36:23.992Z,2.78
2024-01-18T23:38:55.026Z,2.80
2024-01-18T23:41:24.881Z,2.58
2024-01-18T23:43:54.810Z,2.50
2024-01-18T23:46:24.520Z,2.63
2024-01-18T23:48:54.322Z,2.60
2024-01-18T23:51:25.463Z,2.70
2024-01-18T23:53:55.299Z,2.55
2024-01-18T23:56:25.114Z,2.45
2024-01-18T23:58:54.844Z,2.35
